sensor_id;sensor_type;location;lat;lon;timestamp;pressure;altitude;pressure_sealevel;temperature;humidity
74169;BME280;62523;53.336;83.690;2023-08-31T00:03:00;98379.56;;;14.04;100.00
74169;BME280;62523;53.336;83.690;2023-08-31T00:08:01;98375.63;;;13.98;100.00
74169;BME280;62523;53.336;83.690;2023-08-31T00:13:04;98378.44;;;14.06;100.00
74169;BME280;62523;53.336;83.690;2023-08-31T00:18:07;98390.22;;;14.13;100.00
74169;BME280;62523;53.336;83.690;2023-08-31T00:23:09;98380.44;;;14.14;100.00
74169;BME280;62523;53.336;83.690;2023-08-31T00:28:11;98381.38;;;14.65;100.00
74169;BME280;62523;53.336;83.690;2023-08-31T00:33:12;98377.13;;;15.81;100.00
74169;BME280;62523;53.336;83.690;2023-08-31T00:38:14;98374.50;;;17.11;100.00
74169;BME280;62523;53.336;83.690;2023-08-31T00:43:15;98351.25;;;17.49;100.00
74169;BME280;62523;53.336;83.690;2023-08-31T00:48:18;98365.47;;;17.04;100.00
74169;BME280;62523;53.336;83.690;2023-08-31T00:53:21;98376.72;;;15.27;100.00
74169;BME280;62523;53.336;83.690;2023-08-31T00:58:24;98417.16;;;14.90;100.00
74169;BME280;62523;53.336;83.690;2023-08-31T01:03:43;98426.47;;;15.34;100.00
74169;BME280;62523;53.336;83.690;2023-08-31T01:14:32;98425.66;;;17.05;100.00
74169;BME280;62523;53.336;83.690;2023-08-31T01:19:50;98403.50;;;17.86;100.00
74169;BME280;62523;53.336;83.690;2023-08-31T01:24:53;98398.00;;;17.15;100.00
74169;BME280;62523;53.336;83.690;2023-08-31T01:29:56;98410.47;;;17.51;100.00
74169;BME280;62523;53.336;83.690;2023-08-31T01:35:00;98407.59;;;17.62;100.00
74169;BME280;62523;53.336;83.690;2023-08-31T01:40:34;98386.44;;;17.25;100.00
74169;BME280;62523;53.336;83.690;2023-08-31T01:45:38;98402.63;;;16.21;100.00
74169;BME280;62523;53.336;83.690;2023-08-31T01:50:40;98404.91;;;16.06;100.00
74169;BME280;62523;53.336;83.690;2023-08-31T01:55:42;98401.56;;;16.04;100.00
74169;BME280;62523;53.336;83.690;2023-08-31T02:00:44;98392.25;;;16.27;100.00
74169;BME280;62523;53.336;83.690;2023-08-31T02:05:46;98399.53;;;16.35;100.00
74169;BME280;62523;53.336;83.690;2023-08-31T02:10:49;98406.44;;;16.55;100.00
74169;BME280;62523;53.336;83.690;2023-08-31T02:15:57;98397.97;;;16.70;100.00
74169;BME280;62523;53.336;83.690;2023-08-31T02:21:01;98394.31;;;16.81;100.00
74169;BME280;62523;53.336;83.690;2023-08-31T02:26:05;98383.22;;;17.03;100.00
74169;BME280;62523;53.336;83.690;2023-08-31T02:31:17;98382.13;;;17.06;100.00
74169;BME280;62523;53.336;83.690;2023-08-31T02:36:19;98392.22;;;17.20;100.00
74169;BME280;62523;53.336;83.690;2023-08-31T02:41:24;98386.88;;;17.74;100.00
74169;BME280;62523;53.336;83.690;2023-08-31T02:46:25;98384.06;;;17.75;100.00
74169;BME280;62523;53.336;83.690;2023-08-31T02:51:27;98384.47;;;18.07;100.00
74169;BME280;62523;53.336;83.690;2023-08-31T02:56:28;98370.09;;;18.60;100.00
74169;BME280;62523;53.336;83.690;2023-08-31T03:01:30;98358.41;;;18.53;100.00
74169;BME280;62523;53.336;83.690;2023-08-31T03:06:34;98357.91;;;18.92;100.00
74169;BME280;62523;53.336;83.690;2023-08-31T03:11:36;98352.59;;;19.08;100.00
74169;BME280;62523;53.336;83.690;2023-08-31T03:16:39;98362.75;;;19.05;100.00
74169;BME280;62523;53.336;83.690;2023-08-31T03:21:41;98368.97;;;19.38;100.00
74169;BME280;62523;53.336;83.690;2023-08-31T03:26:43;98361.16;;;19.69;100.00
74169;BME280;62523;53.336;83.690;2023-08-31T03:31:44;98370.97;;;20.18;100.00
74169;BME280;62523;53.336;83.690;2023-08-31T03:36:46;98372.47;;;20.20;100.00
74169;BME280;62523;53.336;83.690;2023-08-31T03:41:47;98368.88;;;20.44;100.00
74169;BME280;62523;53.336;83.690;2023-08-31T03:46:49;98375.97;;;20.21;100.00
74169;BME280;62523;53.336;83.690;2023-08-31T03:51:51;98370.44;;;20.78;100.00
74169;BME280;62523;53.336;83.690;2023-08-31T03:56:54;98375.25;;;20.91;100.00
74169;BME280;62523;53.336;83.690;2023-08-31T04:01:56;98362.63;;;21.00;100.00
74169;BME280;62523;53.336;83.690;2023-08-31T04:06:58;98365.38;;;21.38;100.00
74169;BME280;62523;53.336;83.690;2023-08-31T04:12:00;98356.97;;;21.49;100.00
74169;BME280;62523;53.336;83.690;2023-08-31T04:17:05;98353.72;;;21.77;100.00
74169;BME280;62523;53.336;83.690;2023-08-31T04:22:06;98360.78;;;22.31;100.00
74169;BME280;62523;53.336;83.690;2023-08-31T04:27:07;98351.31;;;22.35;100.00
74169;BME280;62523;53.336;83.690;2023-08-31T04:32:09;98353.47;;;22.24;100.00
74169;BME280;62523;53.336;83.690;2023-08-31T04:37:10;98355.66;;;22.36;100.00
74169;BME280;62523;53.336;83.690;2023-08-31T04:42:12;98360.59;;;22.98;100.00
74169;BME280;62523;53.336;83.690;2023-08-31T04:47:13;98345.03;;;23.08;100.00
74169;BME280;62523;53.336;83.690;2023-08-31T04:52:15;98345.22;;;23.07;100.00
74169;BME280;62523;53.336;83.690;2023-08-31T04:57:16;98358.47;;;23.30;100.00
74169;BME280;62523;53.336;83.690;2023-08-31T05:02:18;98357.19;;;23.47;100.00
74169;BME280;62523;53.336;83.690;2023-08-31T05:07:20;98352.06;;;23.31;100.00
74169;BME280;62523;53.336;83.690;2023-08-31T05:12:22;98340.19;;;23.62;100.00
74169;BME280;62523;53.336;83.690;2023-08-31T05:17:24;98343.56;;;24.27;100.00
74169;BME280;62523;53.336;83.690;2023-08-31T05:22:25;98352.72;;;24.39;96.88
74169;BME280;62523;53.336;83.690;2023-08-31T05:27:27;98351.56;;;24.48;96.50
74169;BME280;62523;53.336;83.690;2023-08-31T05:32:28;98347.41;;;24.46;95.30
74169;BME280;62523;53.336;83.690;2023-08-31T05:37:33;98357.56;;;23.66;97.34
74169;BME280;62523;53.336;83.690;2023-08-31T05:42:36;98366.06;;;23.69;100.00
74169;BME280;62523;53.336;83.690;2023-08-31T05:47:40;98380.47;;;24.40;100.00
74169;BME280;62523;53.336;83.690;2023-08-31T05:52:41;98381.47;;;24.67;100.00
74169;BME280;62523;53.336;83.690;2023-08-31T05:57:46;98369.34;;;25.66;88.07
74169;BME280;62523;53.336;83.690;2023-08-31T06:02:47;98377.50;;;25.11;89.47
74169;BME280;62523;53.336;83.690;2023-08-31T06:07:49;98379.28;;;25.65;86.85
74169;BME280;62523;53.336;83.690;2023-08-31T06:12:50;98379.28;;;25.65;84.87
74169;BME280;62523;53.336;83.690;2023-08-31T06:17:52;98378.88;;;25.62;84.88
74169;BME280;62523;53.336;83.690;2023-08-31T06:22:57;98391.63;;;25.13;85.74
74169;BME280;62523;53.336;83.690;2023-08-31T06:27:58;98392.44;;;25.13;86.96
74169;BME280;62523;53.336;83.690;2023-08-31T06:33:00;98384.66;;;25.25;87.42
74169;BME280;62523;53.336;83.690;2023-08-31T06:38:02;98363.94;;;25.52;85.44
74169;BME280;62523;53.336;83.690;2023-08-31T06:43:03;98380.94;;;26.26;82.78
74169;BME280;62523;53.336;83.690;2023-08-31T06:48:05;98372.69;;;25.88;83.33
74169;BME280;62523;53.336;83.690;2023-08-31T06:53:06;98366.88;;;25.71;82.76
74169;BME280;62523;53.336;83.690;2023-08-31T06:58:08;98367.50;;;25.93;81.99
74169;BME280;62523;53.336;83.690;2023-08-31T07:03:09;98370.53;;;25.30;82.56
74169;BME280;62523;53.336;83.690;2023-08-31T07:08:11;98375.59;;;25.93;81.26
74169;BME280;62523;53.336;83.690;2023-08-31T07:13:13;98386.59;;;26.25;79.16
74169;BME280;62523;53.336;83.690;2023-08-31T07:18:14;98390.22;;;26.77;77.63
74169;BME280;62523;53.336;83.690;2023-08-31T07:23:16;98379.16;;;26.85;75.92
74169;BME280;62523;53.336;83.690;2023-08-31T07:28:17;98375.09;;;26.49;77.99
74169;BME280;62523;53.336;83.690;2023-08-31T07:33:19;98384.41;;;26.67;78.01
74169;BME280;62523;53.336;83.690;2023-08-31T07:38:20;98396.19;;;26.86;76.69
74169;BME280;62523;53.336;83.690;2023-08-31T07:43:22;98400.44;;;27.13;64.56
74169;BME280;62523;53.336;83.690;2023-08-31T07:48:23;98387.09;;;27.32;56.18
74169;BME280;62523;53.336;83.690;2023-08-31T07:53:25;98402.66;;;27.36;52.75
74169;BME280;62523;53.336;83.690;2023-08-31T07:58:29;98412.59;;;26.98;53.77
74169;BME280;62523;53.336;83.690;2023-08-31T08:03:31;98415.56;;;26.83;53.17
74169;BME280;62523;53.336;83.690;2023-08-31T08:08:32;98423.22;;;26.86;53.71
74169;BME280;62523;53.336;83.690;2023-08-31T08:13:34;98415.50;;;26.96;53.26
74169;BME280;62523;53.336;83.690;2023-08-31T08:18:35;98422.25;;;27.18;53.87
74169;BME280;62523;53.336;83.690;2023-08-31T08:23:37;98424.97;;;27.12;53.37
74169;BME280;62523;53.336;83.690;2023-08-31T08:28:38;98427.84;;;26.72;54.45
74169;BME280;62523;53.336;83.690;2023-08-31T08:33:39;98421.44;;;26.60;55.64
74169;BME280;62523;53.336;83.690;2023-08-31T08:38:41;98439.06;;;26.62;54.18
74169;BME280;62523;53.336;83.690;2023-08-31T08:43:43;98446.38;;;25.88;53.72
74169;BME280;62523;53.336;83.690;2023-08-31T08:48:47;98461.28;;;25.78;53.19
74169;BME280;62523;53.336;83.690;2023-08-31T08:53:50;98457.06;;;25.55;55.46
74169;BME280;62523;53.336;83.690;2023-08-31T08:58:53;98468.25;;;25.45;55.89
74169;BME280;62523;53.336;83.690;2023-08-31T09:03:55;98467.03;;;25.54;56.36
74169;BME280;62523;53.336;83.690;2023-08-31T09:08:57;98477.78;;;25.41;57.12
74169;BME280;62523;53.336;83.690;2023-08-31T09:13:58;98480.81;;;25.25;58.42
74169;BME280;62523;53.336;83.690;2023-08-31T09:19:00;98480.81;;;25.25;58.79
74169;BME280;62523;53.336;83.690;2023-08-31T09:24:18;98485.69;;;25.08;59.71
74169;BME280;62523;53.336;83.690;2023-08-31T09:29:20;98496.66;;;25.00;59.78
74169;BME280;62523;53.336;83.690;2023-08-31T09:34:32;98493.66;;;24.88;59.83
74169;BME280;62523;53.336;83.690;2023-08-31T09:39:41;98494.44;;;24.82;60.14
74169;BME280;62523;53.336;83.690;2023-08-31T09:44:43;98513.78;;;24.57;61.58
74169;BME280;62523;53.336;83.690;2023-08-31T09:49:46;98517.16;;;24.44;61.55
74169;BME280;62523;53.336;83.690;2023-08-31T09:54:48;98523.19;;;24.46;61.58
74169;BME280;62523;53.336;83.690;2023-08-31T09:59:52;98527.66;;;24.39;61.24
74169;BME280;62523;53.336;83.690;2023-08-31T10:04:55;98521.84;;;24.36;60.49
74169;BME280;62523;53.336;83.690;2023-08-31T10:09:58;98534.63;;;24.48;61.15
74169;BME280;62523;53.336;83.690;2023-08-31T10:15:00;98538.84;;;24.36;60.88
74169;BME280;62523;53.336;83.690;2023-08-31T10:20:07;98547.84;;;24.28;60.61
74169;BME280;62523;53.336;83.690;2023-08-31T10:25:10;98570.56;;;24.19;61.09
74169;BME280;62523;53.336;83.690;2023-08-31T10:36:01;98596.94;;;24.09;63.46
74169;BME280;62523;53.336;83.690;2023-08-31T10:41:18;98624.75;;;23.80;63.54
74169;BME280;62523;53.336;83.690;2023-08-31T10:46:34;98648.03;;;23.73;64.88
74169;BME280;62523;53.336;83.690;2023-08-31T10:51:38;98657.56;;;23.45;66.73
74169;BME280;62523;53.336;83.690;2023-08-31T11:02:27;98689.78;;;22.93;66.74
74169;BME280;62523;53.336;83.690;2023-08-31T11:07:33;98720.59;;;22.59;68.61
74169;BME280;62523;53.336;83.690;2023-08-31T11:12:37;98713.34;;;21.97;74.07
74169;BME280;62523;53.336;83.690;2023-08-31T11:17:40;98736.03;;;21.78;78.44
74169;BME280;62523;53.336;83.690;2023-08-31T11:22:43;98752.50;;;21.50;82.97
74169;BME280;62523;53.336;83.690;2023-08-31T11:28:00;98788.81;;;20.87;88.12
74169;BME280;62523;53.336;83.690;2023-08-31T11:33:06;98811.34;;;20.25;97.11
74169;BME280;62523;53.336;83.690;2023-08-31T11:38:09;98829.38;;;19.89;100.00
74169;BME280;62523;53.336;83.690;2023-08-31T11:43:11;98850.31;;;19.32;100.00
74169;BME280;62523;53.336;83.690;2023-08-31T11:48:13;98874.31;;;18.96;100.00
74169;BME280;62523;53.336;83.690;2023-08-31T11:53:15;98881.16;;;18.80;100.00
74169;BME280;62523;53.336;83.690;2023-08-31T11:58:17;98908.59;;;18.63;100.00
74169;BME280;62523;53.336;83.690;2023-08-31T12:03:18;98922.66;;;18.18;100.00
74169;BME280;62523;53.336;83.690;2023-08-31T12:08:27;98970.94;;;17.76;100.00
74169;BME280;62523;53.336;83.690;2023-08-31T12:13:28;98990.41;;;17.47;100.00
74169;BME280;62523;53.336;83.690;2023-08-31T12:18:30;99011.81;;;17.16;100.00
74169;BME280;62523;53.336;83.690;2023-08-31T12:23:35;99012.59;;;17.07;100.00
74169;BME280;62523;53.336;83.690;2023-08-31T12:28:36;99039.19;;;17.07;100.00
74169;BME280;62523;53.336;83.690;2023-08-31T12:33:38;99036.25;;;16.79;100.00
74169;BME280;62523;53.336;83.690;2023-08-31T12:38:40;99062.09;;;16.68;100.00
74169;BME280;62523;53.336;83.690;2023-08-31T12:43:42;99057.75;;;16.67;100.00
74169;BME280;62523;53.336;83.690;2023-08-31T12:48:44;99060.03;;;16.50;100.00
74169;BME280;62523;53.336;83.690;2023-08-31T12:53:46;99061.66;;;16.42;100.00
74169;BME280;62523;53.336;83.690;2023-08-31T12:58:49;99064.56;;;16.38;100.00
74169;BME280;62523;53.336;83.690;2023-08-31T13:03:51;99052.47;;;16.25;100.00
74169;BME280;62523;53.336;83.690;2023-08-31T13:08:53;99063.81;;;16.27;100.00
74169;BME280;62523;53.336;83.690;2023-08-31T13:13:55;99063.59;;;16.18;100.00
74169;BME280;62523;53.336;83.690;2023-08-31T13:18:57;99056.53;;;16.08;100.00
74169;BME280;62523;53.336;83.690;2023-08-31T13:23:58;99065.84;;;16.02;100.00
74169;BME280;62523;53.336;83.690;2023-08-31T13:29:01;99054.91;;;15.84;100.00
74169;BME280;62523;53.336;83.690;2023-08-31T13:34:03;99030.06;;;15.30;100.00
74169;BME280;62523;53.336;83.690;2023-08-31T13:39:07;99004.69;;;15.49;100.00
74169;BME280;62523;53.336;83.690;2023-08-31T13:44:09;99006.84;;;15.44;100.00
74169;BME280;62523;53.336;83.690;2023-08-31T13:49:10;99001.09;;;15.71;100.00
74169;BME280;62523;53.336;83.690;2023-08-31T13:54:12;99006.91;;;15.76;100.00
74169;BME280;62523;53.336;83.690;2023-08-31T13:59:13;99007.28;;;15.71;100.00
74169;BME280;62523;53.336;83.690;2023-08-31T14:04:15;99027.41;;;15.85;100.00
74169;BME280;62523;53.336;83.690;2023-08-31T14:09:16;99033.63;;;15.95;100.00
74169;BME280;62523;53.336;83.690;2023-08-31T14:14:19;99050.09;;;15.78;100.00
74169;BME280;62523;53.336;83.690;2023-08-31T14:19:23;99065.03;;;15.90;100.00
74169;BME280;62523;53.336;83.690;2023-08-31T14:24:24;99057.25;;;16.10;100.00
74169;BME280;62523;53.336;83.690;2023-08-31T14:29:26;99059.63;;;16.13;100.00
74169;BME280;62523;53.336;83.690;2023-08-31T14:34:27;99052.81;;;16.41;100.00
74169;BME280;62523;53.336;83.690;2023-08-31T14:39:29;99059.72;;;16.23;100.00
74169;BME280;62523;53.336;83.690;2023-08-31T14:44:32;99072.69;;;16.16;100.00
74169;BME280;62523;53.336;83.690;2023-08-31T14:49:34;99070.53;;;16.10;100.00
74169;BME280;62523;53.336;83.690;2023-08-31T14:54:36;99070.25;;;15.92;100.00
74169;BME280;62523;53.336;83.690;2023-08-31T14:59:38;99072.28;;;15.88;100.00
74169;BME280;62523;53.336;83.690;2023-08-31T15:04:40;99092.31;;;15.92;100.00
74169;BME280;62523;53.336;83.690;2023-08-31T15:09:41;99073.50;;;15.84;100.00
74169;BME280;62523;53.336;83.690;2023-08-31T15:14:43;99085.84;;;15.85;100.00
74169;BME280;62523;53.336;83.690;2023-08-31T15:19:45;99093.09;;;15.72;100.00
74169;BME280;62523;53.336;83.690;2023-08-31T15:24:46;99102.88;;;15.71;100.00
74169;BME280;62523;53.336;83.690;2023-08-31T15:29:47;99119.53;;;15.62;100.00
74169;BME280;62523;53.336;83.690;2023-08-31T15:34:49;99117.00;;;15.72;100.00
74169;BME280;62523;53.336;83.690;2023-08-31T15:39:51;99119.38;;;15.64;100.00
74169;BME280;62523;53.336;83.690;2023-08-31T15:44:53;99115.56;;;15.56;100.00
74169;BME280;62523;53.336;83.690;2023-08-31T15:49:57;99117.59;;;15.53;100.00
74169;BME280;62523;53.336;83.690;2023-08-31T15:55:01;99126.56;;;15.41;100.00
74169;BME280;62523;53.336;83.690;2023-08-31T16:00:06;99125.47;;;15.32;100.00
74169;BME280;62523;53.336;83.690;2023-08-31T16:05:08;99120.91;;;15.34;100.00
74169;BME280;62523;53.336;83.690;2023-08-31T16:10:11;99109.41;;;15.33;100.00
74169;BME280;62523;53.336;83.690;2023-08-31T16:15:12;99093.50;;;15.33;100.00
74169;BME280;62523;53.336;83.690;2023-08-31T16:20:14;99087.34;;;15.33;100.00
74169;BME280;62523;53.336;83.690;2023-08-31T16:25:16;99084.47;;;15.36;100.00
74169;BME280;62523;53.336;83.690;2023-08-31T16:30:18;99081.66;;;15.38;100.00
74169;BME280;62523;53.336;83.690;2023-08-31T16:35:20;99090.34;;;15.40;100.00
74169;BME280;62523;53.336;83.690;2023-08-31T16:40:22;99074.44;;;15.28;100.00
74169;BME280;62523;53.336;83.690;2023-08-31T16:45:23;99075.16;;;15.30;100.00
74169;BME280;62523;53.336;83.690;2023-08-31T16:50:32;99079.75;;;15.28;100.00
74169;BME280;62523;53.336;83.690;2023-08-31T16:55:37;99082.28;;;15.30;100.00
74169;BME280;62523;53.336;83.690;2023-08-31T17:00:43;99080.25;;;15.22;100.00
74169;BME280;62523;53.336;83.690;2023-08-31T17:05:44;99071.31;;;15.23;100.00
74169;BME280;62523;53.336;83.690;2023-08-31T17:10:47;99075.56;;;15.14;100.00
74169;BME280;62523;53.336;83.690;2023-08-31T17:15:49;99080.88;;;15.14;100.00
74169;BME280;62523;53.336;83.690;2023-08-31T17:20:50;99092.66;;;15.22;100.00
74169;BME280;62523;53.336;83.690;2023-08-31T17:25:52;99084.09;;;15.07;100.00
74169;BME280;62523;53.336;83.690;2023-08-31T17:30:53;99090.50;;;15.04;100.00
74169;BME280;62523;53.336;83.690;2023-08-31T17:35:56;99094.47;;;15.10;100.00
74169;BME280;62523;53.336;83.690;2023-08-31T17:40:58;99103.03;;;15.02;100.00
74169;BME280;62523;53.336;83.690;2023-08-31T17:46:00;99106.31;;;15.06;100.00
74169;BME280;62523;53.336;83.690;2023-08-31T17:51:01;99095.66;;;14.94;100.00
74169;BME280;62523;53.336;83.690;2023-08-31T17:56:04;99084.13;;;14.84;100.00
74169;BME280;62523;53.336;83.690;2023-08-31T18:01:14;99086.88;;;14.83;100.00
74169;BME280;62523;53.336;83.690;2023-08-31T18:06:16;99078.91;;;14.71;100.00
74169;BME280;62523;53.336;83.690;2023-08-31T18:11:18;99065.63;;;14.60;100.00
74169;BME280;62523;53.336;83.690;2023-08-31T18:16:19;99068.78;;;14.65;100.00
74169;BME280;62523;53.336;83.690;2023-08-31T18:21:21;99068.16;;;14.73;100.00
74169;BME280;62523;53.336;83.690;2023-08-31T18:26:22;99070.75;;;14.50;100.00
74169;BME280;62523;53.336;83.690;2023-08-31T18:31:24;99072.72;;;14.60;100.00
74169;BME280;62523;53.336;83.690;2023-08-31T18:36:26;99079.53;;;14.40;100.00
74169;BME280;62523;53.336;83.690;2023-08-31T18:41:27;99068.69;;;14.43;100.00
74169;BME280;62523;53.336;83.690;2023-08-31T18:46:29;99078.41;;;14.31;100.00
74169;BME280;62523;53.336;83.690;2023-08-31T18:51:30;99081.16;;;14.18;100.00
74169;BME280;62523;53.336;83.690;2023-08-31T18:56:34;99086.16;;;14.45;100.00
74169;BME280;62523;53.336;83.690;2023-08-31T19:01:36;99079.81;;;14.24;100.00
74169;BME280;62523;53.336;83.690;2023-08-31T19:06:38;99079.97;;;14.22;100.00
74169;BME280;62523;53.336;83.690;2023-08-31T19:11:39;99081.38;;;14.15;100.00
74169;BME280;62523;53.336;83.690;2023-08-31T19:16:41;99084.72;;;14.06;100.00
74169;BME280;62523;53.336;83.690;2023-08-31T19:21:42;99083.19;;;14.14;100.00
74169;BME280;62523;53.336;83.690;2023-08-31T19:26:44;99081.38;;;13.91;100.00
74169;BME280;62523;53.336;83.690;2023-08-31T19:31:45;99089.97;;;13.95;100.00
74169;BME280;62523;53.336;83.690;2023-08-31T19:36:47;99092.31;;;13.86;100.00
74169;BME280;62523;53.336;83.690;2023-08-31T19:41:50;99088.09;;;13.84;100.00
74169;BME280;62523;53.336;83.690;2023-08-31T19:46:52;99097.63;;;13.86;100.00
74169;BME280;62523;53.336;83.690;2023-08-31T19:51:54;99100.22;;;13.75;100.00
74169;BME280;62523;53.336;83.690;2023-08-31T19:56:56;99099.28;;;13.63;100.00
74169;BME280;62523;53.336;83.690;2023-08-31T20:01:57;99110.53;;;13.54;100.00
74169;BME280;62523;53.336;83.690;2023-08-31T20:07:00;99101.56;;;13.44;100.00
74169;BME280;62523;53.336;83.690;2023-08-31T20:12:01;99106.88;;;13.31;100.00
74169;BME280;62523;53.336;83.690;2023-08-31T20:17:03;99105.38;;;13.27;100.00
74169;BME280;62523;53.336;83.690;2023-08-31T20:22:05;99096.94;;;13.22;100.00
74169;BME280;62523;53.336;83.690;2023-08-31T20:27:06;99089.34;;;13.30;100.00
74169;BME280;62523;53.336;83.690;2023-08-31T20:32:08;99084.22;;;13.27;100.00
74169;BME280;62523;53.336;83.690;2023-08-31T20:37:10;99082.53;;;13.26;100.00
74169;BME280;62523;53.336;83.690;2023-08-31T20:42:11;99091.41;;;13.25;100.00
74169;BME280;62523;53.336;83.690;2023-08-31T20:47:13;99086.13;;;13.25;100.00
74169;BME280;62523;53.336;83.690;2023-08-31T20:52:14;99080.72;;;13.26;100.00
74169;BME280;62523;53.336;83.690;2023-08-31T20:57:16;99088.56;;;13.28;100.00
74169;BME280;62523;53.336;83.690;2023-08-31T21:02:18;99087.19;;;13.22;100.00
74169;BME280;62523;53.336;83.690;2023-08-31T21:07:19;99089.66;;;13.13;100.00
74169;BME280;62523;53.336;83.690;2023-08-31T21:12:21;99079.72;;;13.03;100.00
74169;BME280;62523;53.336;83.690;2023-08-31T21:17:23;99083.09;;;13.05;100.00
74169;BME280;62523;53.336;83.690;2023-08-31T21:22:24;99092.00;;;13.04;100.00
74169;BME280;62523;53.336;83.690;2023-08-31T21:27:25;99080.34;;;12.94;100.00
74169;BME280;62523;53.336;83.690;2023-08-31T21:32:27;99080.59;;;12.91;100.00
74169;BME280;62523;53.336;83.690;2023-08-31T21:37:29;99077.22;;;12.89;100.00
74169;BME280;62523;53.336;83.690;2023-08-31T21:42:30;99080.16;;;12.84;100.00
74169;BME280;62523;53.336;83.690;2023-08-31T21:47:32;99074.97;;;12.83;100.00
74169;BME280;62523;53.336;83.690;2023-08-31T21:52:33;99089.88;;;12.84;100.00
74169;BME280;62523;53.336;83.690;2023-08-31T21:57:35;99091.59;;;12.85;100.00
74169;BME280;62523;53.336;83.690;2023-08-31T22:02:36;99089.59;;;12.76;100.00
74169;BME280;62523;53.336;83.690;2023-08-31T22:07:38;99077.94;;;12.78;100.00
74169;BME280;62523;53.336;83.690;2023-08-31T22:12:40;99082.59;;;12.75;100.00
74169;BME280;62523;53.336;83.690;2023-08-31T22:17:43;99082.16;;;12.55;100.00
74169;BME280;62523;53.336;83.690;2023-08-31T22:22:52;99104.28;;;12.67;100.00
74169;BME280;62523;53.336;83.690;2023-08-31T22:27:57;99111.44;;;12.52;100.00
74169;BME280;62523;53.336;83.690;2023-08-31T22:32:58;99113.84;;;12.42;100.00
74169;BME280;62523;53.336;83.690;2023-08-31T22:38:00;99118.94;;;12.45;100.00
74169;BME280;62523;53.336;83.690;2023-08-31T22:43:04;99125.44;;;12.27;100.00
74169;BME280;62523;53.336;83.690;2023-08-31T22:48:06;99121.75;;;12.29;100.00
74169;BME280;62523;53.336;83.690;2023-08-31T22:53:08;99115.69;;;12.15;100.00
74169;BME280;62523;53.336;83.690;2023-08-31T22:58:09;99117.78;;;12.09;100.00
74169;BME280;62523;53.336;83.690;2023-08-31T23:03:11;99115.03;;;11.98;100.00
74169;BME280;62523;53.336;83.690;2023-08-31T23:08:15;99118.59;;;11.97;100.00
74169;BME280;62523;53.336;83.690;2023-08-31T23:13:17;99127.16;;;12.01;100.00
74169;BME280;62523;53.336;83.690;2023-08-31T23:18:19;99133.94;;;12.05;100.00
74169;BME280;62523;53.336;83.690;2023-08-31T23:23:20;99140.28;;;12.02;100.00
74169;BME280;62523;53.336;83.690;2023-08-31T23:28:22;99136.88;;;12.00;100.00
74169;BME280;62523;53.336;83.690;2023-08-31T23:33:24;99136.31;;;11.95;100.00
74169;BME280;62523;53.336;83.690;2023-08-31T23:38:26;99142.75;;;11.77;100.00
74169;BME280;62523;53.336;83.690;2023-08-31T23:43:28;99138.72;;;11.71;100.00
74169;BME280;62523;53.336;83.690;2023-08-31T23:48:29;99146.44;;;11.74;100.00
74169;BME280;62523;53.336;83.690;2023-08-31T23:53:31;99149.66;;;11.65;100.00
74169;BME280;62523;53.336;83.690;2023-08-31T23:58:34;99148.06;;;11.62;100.00
